Time;durP1;ratioP1;P1;durP2;ratioP2;P2;SDS_P1;SDS_P2;PMS_P1;PMS_P2;Temp;Humidity;BMP_temperature;BMP_pressure;BME280_temperature;BME280_humidity;BME280_pressure;Samples;Min_cycle;Max_cycle;Signal;HPM_P1;HPM_P2
2022/02/09 00:02:22;;;;;;;6.00;1.95;;;;;;;5.36;87.55;101435.68;1621124;87;21507;-76
2022/02/09 00:10:22;;;;;;;4.62;1.30;;;;;;;5.25;87.56;101438.05;1625835;86;21019;-77
2022/02/09 00:13:36;;;;;;;2.40;1.52;;;;;;;5.21;87.54;101438.41;1643409;86;20962;-76
2022/02/09 00:19:16;;;;;;;4.03;1.32;;;;;;;5.13;87.54;101450.24;1614011;88;20947;-77
2022/02/09 00:22:12;;;;;;;3.42;1.20;;;;;;;5.11;87.65;101464.73;1607082;89;20974;-77
2022/02/09 00:25:21;;;;;;;7.95;1.80;;;;;;;5.10;87.66;101470.69;1592060;89;21054;-76
2022/02/09 00:28:15;;;;;;;2.72;1.55;;;;;;;5.11;87.74;101479.23;1607194;89;20965;-76
2022/02/09 00:37:11;;;;;;;5.67;2.00;;;;;;;5.21;87.92;101469.17;1605424;89;20966;-78
2022/02/09 01:40:10;;;;;;;2.95;1.17;;;;;;;5.51;87.94;101469.30;1651169;86;20944;-76
2022/02/09 01:57:36;;;;;;;1.70;1.00;;;;;;;5.45;88.04;101479.03;1631535;86;21453;-77
2022/02/09 02:00:20;;;;;;;2.30;1.05;;;;;;;5.47;88.08;101479.06;1614331;87;20933;-77
2022/02/09 02:03:05;;;;;;;2.02;0.95;;;;;;;5.47;88.04;101481.63;1636147;87;20941;-76
2022/02/09 02:05:49;;;;;;;1.85;0.82;;;;;;;5.46;88.02;101482.46;1648318;86;20949;-76
2022/02/09 02:08:34;;;;;;;3.12;1.30;;;;;;;5.46;88.08;101483.75;1629975;86;21830;-77
2022/02/09 02:14:29;;;;;;;2.77;1.05;;;;;;;5.43;88.07;101485.84;1630426;86;20913;-77
2022/02/09 02:20:11;;;;;;;15.90;14.95;;;;;;;5.43;88.09;101485.84;1648155;86;21425;-77
2022/02/09 02:23:05;;;;;;;;;;;;;;;5.45;88.15;101480.73;1646756;85;20932;-77
2022/02/09 02:25:46;;;;;;;4.28;2.30;;;;;;;5.46;88.23;101479.48;1647614;87;20138;-77
2022/02/09 03:10:49;;;;;;;2.12;1.90;;;;;;;5.42;88.21;101483.23;1622147;85;21088;-77
2022/02/09 03:13:16;;;;;;;1.90;1.50;;;;;;;5.42;88.25;101487.95;1619570;87;21116;-77
2022/02/09 03:16:06;;;;;;;;;;;;;;;5.44;88.26;101487.98;1639334;85;21425;-77
2022/02/09 03:21:51;;;;;;;3.40;1.85;;;;;;;5.46;88.30;101485.03;1631756;85;21127;-79
2022/02/09 03:24:51;;;;;;;;;;;;;;;5.46;88.30;101489.73;1645732;83;21622;-79
2022/02/09 03:27:43;;;;;;;;;;;;;;;5.47;88.35;101483.77;1621227;87;20235;-78
2022/02/09 03:42:28;;;;;;;1.72;1.60;;;;;;;5.51;88.34;101484.70;1627448;86;21076;-78
2022/02/09 03:57:00;;;;;;;2.35;2.12;;;;;;;5.65;88.44;101480.27;1645272;85;21543;-78
2022/02/09 03:59:43;;;;;;;2.65;2.10;;;;;;;5.69;88.41;101473.91;1642445;83;21101;-78
2022/02/09 04:02:29;;;;;;;6.28;2.00;;;;;;;5.71;88.38;101469.66;1637925;85;21103;-77
2022/02/09 04:05:16;;;;;;;2.47;2.20;;;;;;;5.73;88.40;101473.09;1640474;87;21087;-77
2022/02/09 04:08:02;;;;;;;3.00;1.87;;;;;;;5.76;88.41;101473.14;1641541;86;20969;-77
2022/02/09 04:11:03;;;;;;;2.75;1.92;;;;;;;5.78;88.41;101473.62;1636866;85;20957;-77
2022/02/09 04:14:01;;;;;;;2.15;1.98;;;;;;;5.81;88.42;101467.67;1620044;85;21501;-77
2022/02/09 04:36:09;;;;;;;2.55;2.00;;;;;;;5.93;88.42;101454.66;1621713;88;20953;-77
2022/02/09 04:40:15;;;;;;;4.10;1.65;;;;;;;6.04;88.45;101447.55;1592071;89;21007;-77
2022/02/09 04:54:55;;;;;;;3.05;2.10;;;;;;;6.11;88.47;101432.27;1589830;89;21006;-78
2022/02/09 04:57:43;;;;;;;2.83;1.80;;;;;;;6.13;88.46;101437.02;1603638;87;21500;-78
2022/02/09 05:29:41;;;;;;;3.95;1.57;;;;;;;6.30;88.56;101444.94;1659122;86;20991;-78
2022/02/09 05:32:26;;;;;;;1.75;1.07;;;;;;;6.32;88.55;101449.67;1659382;86;20954;-77
2022/02/09 05:35:11;;;;;;;2.10;1.20;;;;;;;6.33;88.57;101458.24;1649476;85;20956;-77
2022/02/09 05:37:58;;;;;;;2.33;1.52;;;;;;;6.34;88.57;101462.55;1652156;86;20953;-77
2022/02/09 05:40:44;;;;;;;2.30;1.42;;;;;;;6.34;88.57;101464.69;1647864;86;20909;-78
2022/02/09 05:43:28;;;;;;;1.98;1.12;;;;;;;6.35;88.58;101462.98;1641495;85;21766;-78
2022/02/09 05:49:31;;;;;;;2.87;1.90;;;;;;;6.34;88.61;101460.84;1623621;87;20972;-78
2022/02/09 05:57:49;;;;;;;2.02;1.00;;;;;;;6.32;88.67;101447.11;1630804;87;20977;-78
2022/02/09 06:00:32;;;;;;;2.13;1.80;;;;;;;6.33;88.68;101438.98;1636511;85;20968;-77
2022/02/09 06:03:16;;;;;;;2.50;1.70;;;;;;;6.35;88.73;101459.12;1652832;84;21106;-77
2022/02/09 06:06:03;;;;;;;1.80;1.70;;;;;;;6.34;88.72;101444.14;1644787;85;20938;-77
2022/02/09 06:08:46;;;;;;;;;;;;;;;6.34;88.72;101444.14;1631154;86;20952;-79
2022/02/09 06:14:37;;;;;;;1.80;1.70;;;;;;;6.31;88.73;101446.24;1627425;86;21488;-78
2022/02/09 06:20:09;;;;;;;2.08;1.98;;;;;;;6.32;88.80;101450.95;1625741;87;21547;-78
2022/02/09 06:22:53;;;;;;;1.82;1.65;;;;;;;6.31;88.78;101450.52;1664973;85;21389;-75
2022/02/09 06:25:37;;;;;;;16.90;16.02;;;;;;;6.32;88.80;101456.09;1645814;85;20981;-78
2022/02/09 06:28:23;;;;;;;3.00;2.83;;;;;;;6.32;88.83;101458.66;1671281;84;20980;-75
2022/02/09 06:31:14;;;;;;;3.65;3.45;;;;;;;6.32;88.80;101458.66;1650465;85;20928;-77
2022/02/09 06:33:59;;;;;;;6.05;5.70;;;;;;;6.31;88.81;101464.64;1642918;85;20933;-77
2022/02/09 06:36:56;;;;;;;4.72;4.50;;;;;;;6.32;88.83;101461.23;1637152;85;20909;-77
2022/02/09 06:39:31;;;;;;;5.70;5.35;;;;;;;6.30;88.80;101456.49;1649025;84;20961;-77
2022/02/09 06:42:22;;;;;;;3.52;3.20;;;;;;;6.29;88.86;101453.48;1630067;85;20932;-77
2022/02/09 06:45:10;;;;;;;4.62;3.58;;;;;;;6.30;88.86;101457.78;1630800;86;20984;-77
2022/02/09 06:47:50;;;;;;;3.27;3.08;;;;;;;6.30;88.88;101460.34;1650957;85;21417;-77
2022/02/09 06:50:39;;;;;;;3.47;3.17;;;;;;;6.30;88.88;101460.34;1640796;85;20936;-78
2022/02/09 06:56:05;;;;;;;5.17;4.37;;;;;;;6.33;88.93;101447.97;1646247;85;20933;-77
2022/02/09 06:59:11;;;;;;;4.05;3.65;;;;;;;6.34;88.95;101444.56;1643885;85;21548;-78
2022/02/09 07:01:42;;;;;;;5.35;4.40;;;;;;;6.35;88.97;101443.72;1645403;85;20977;-78
2022/02/09 07:04:26;;;;;;;5.42;4.42;;;;;;;6.38;88.97;101442.48;1620336;86;20972;-78
2022/02/09 07:07:11;;;;;;;5.25;4.85;;;;;;;6.39;88.98;101432.23;1625653;86;20928;-79
2022/02/09 07:09:55;;;;;;;5.60;5.10;;;;;;;6.41;89.00;101436.10;1618381;86;20956;-78
2022/02/09 07:12:44;;;;;;;12.07;6.67;;;;;;;6.42;89.00;101428.42;1630798;86;20961;-76
2022/02/09 07:15:33;;;;;;;8.88;7.42;;;;;;;6.45;89.06;101427.59;1620513;86;20971;-79
2022/02/09 07:18:15;;;;;;;;;;;;;;;6.47;89.06;101434.91;1632177;86;20986;-78
2022/02/09 07:21:05;;;;;;;6.58;5.97;;;;;;;6.49;89.17;101433.22;1622554;86;20108;-78
2022/02/09 07:23:50;;;;;;;8.15;7.00;;;;;;;6.51;89.11;101428.97;1631000;86;20940;-78
2022/02/09 07:29:30;;;;;;;7.37;6.67;;;;;;;6.58;89.16;101430.78;1624462;86;20993;-78
2022/02/09 07:32:15;;;;;;;7.42;6.72;;;;;;;6.60;89.17;101425.23;1629187;86;20952;-79
2022/02/09 07:35:00;;;;;;;7.75;7.12;;;;;;;6.63;89.17;101421.00;1622332;86;21461;-78
2022/02/09 07:37:44;;;;;;;10.53;8.25;;;;;;;6.68;89.21;101413.78;1608084;87;20931;-79
2022/02/09 07:40:29;;;;;;;8.45;7.75;;;;;;;6.71;89.20;101408.67;1627435;86;20965;-79
2022/02/09 07:43:21;;;;;;;9.48;8.33;;;;;;;6.76;89.25;101409.59;1636587;86;20919;-78
2022/02/09 07:46:18;;;;;;;9.50;8.28;;;;;;;6.81;89.28;101410.48;1629716;86;20940;-80
2022/02/09 07:49:00;;;;;;;9.28;8.40;;;;;;;6.84;89.30;101406.66;1616474;88;20964;-78
2022/02/09 07:51:43;;;;;;;10.10;9.23;;;;;;;6.88;89.28;101400.30;1614259;86;20980;-78
2022/02/09 07:54:27;;;;;;;10.50;9.50;;;;;;;6.94;89.29;101405.51;1618781;86;20955;-78
2022/02/09 07:57:11;;;;;;;10.93;9.80;;;;;;;6.99;89.33;101405.56;1616240;86;20987;-78
2022/02/09 07:59:56;;;;;;;10.15;9.15;;;;;;;7.05;89.35;101401.77;1624855;86;20952;-79
2022/02/09 08:02:42;;;;;;;10.20;9.20;;;;;;;7.10;89.37;101403.11;1617849;86;20985;-78
2022/02/09 08:05:26;;;;;;;9.68;8.78;;;;;;;7.14;89.38;101403.16;1622479;86;21000;-78
2022/02/09 08:08:11;;;;;;;10.23;8.90;;;;;;;7.19;89.42;101406.64;1619186;88;20953;-78
2022/02/09 08:10:59;;;;;;;9.20;8.30;;;;;;;7.25;89.40;101408.00;1620733;86;21416;-78
2022/02/09 08:31:58;;;;;;;8.38;7.67;;;;;;;7.65;89.50;101408.34;1646491;85;20960;-78
2022/02/09 08:34:12;;;;;;;9.48;8.10;;;;;;;7.72;89.56;101416.98;1648691;85;20957;-79
2022/02/09 08:36:57;;;;;;;8.43;7.62;;;;;;;7.76;89.55;101404.58;1654101;85;21794;-79
2022/02/09 08:39:42;;;;;;;8.70;7.90;;;;;;;7.80;89.52;101408.44;1647538;85;20997;-79
2022/02/09 08:42:26;;;;;;;8.05;7.25;;;;;;;7.84;89.57;101405.47;1643485;85;20941;-77
2022/02/09 08:45:11;;;;;;;8.73;7.83;;;;;;;7.87;89.54;101414.08;1647148;85;20964;-77
2022/02/09 08:47:57;;;;;;;8.65;7.85;;;;;;;7.90;89.53;101408.95;1641959;85;21409;-77
2022/02/09 08:50:41;;;;;;;7.97;7.33;;;;;;;7.94;89.53;101404.69;1628871;86;20945;-77
2022/02/09 08:53:26;;;;;;;8.83;7.80;;;;;;;7.97;89.49;101404.72;1613588;88;20984;-77
2022/02/09 08:56:11;;;;;;;7.97;7.28;;;;;;;7.98;89.47;101404.73;1619458;86;20959;-76
2022/02/09 08:59:00;;;;;;;8.08;7.42;;;;;;;8.02;89.55;101403.46;1622803;88;20991;-76
2022/02/09 09:01:52;;;;;;;9.40;8.60;;;;;;;8.03;89.51;101416.78;1605691;87;21000;-77
2022/02/09 09:04:39;;;;;;;8.50;7.72;;;;;;;8.04;89.54;101410.34;1606780;88;21872;-77
2022/02/09 09:07:31;;;;;;;8.23;7.33;;;;;;;8.05;89.52;101404.34;1621538;86;20927;-78
2022/02/09 09:25:06;;;;;;;5.37;4.97;;;;;;;8.11;89.58;101395.80;1617244;86;20992;-77
2022/02/09 09:41:00;;;;;;;5.53;4.78;;;;;;;8.16;89.58;101400.56;1616027;87;20964;-76
2022/02/09 10:01:51;;;;;;;7.92;6.90;;;;;;;8.16;89.59;101418.59;1618271;87;20980;-78
2022/02/09 10:04:55;;;;;;;7.33;6.37;;;;;;;8.18;89.61;101415.59;1622020;86;21627;-77
2022/02/09 10:35:35;;;;;;;11.75;8.65;;;;;;;8.42;89.70;101403.30;1630856;86;21004;-76
2022/02/09 10:38:28;;;;;;;11.63;9.70;;;;;;;8.43;89.70;101403.30;1629677;86;21060;-76
2022/02/09 10:41:29;;;;;;;9.03;7.90;;;;;;;8.47;89.69;101398.59;1629681;86;20955;-77
2022/02/09 10:44:15;;;;;;;9.08;7.75;;;;;;;8.52;89.71;101396.05;1629973;86;21006;-78
2022/02/09 10:46:59;;;;;;;11.75;6.65;;;;;;;8.52;89.66;101399.48;1625463;87;20987;-79
2022/02/09 10:50:06;;;;;;;8.75;7.83;;;;;;;8.53;89.66;101402.92;1618172;87;21500;-79
2022/02/09 10:52:52;;;;;;;9.40;5.85;;;;;;;8.56;89.66;101400.36;1624544;86;20966;-79
2022/02/09 10:55:42;;;;;;;8.98;6.42;;;;;;;8.59;89.67;101383.63;1618825;86;20952;-79
2022/02/09 10:58:28;;;;;;;9.68;6.17;;;;;;;8.65;89.73;101384.08;1627257;86;21030;-78
2022/02/09 11:01:13;;;;;;;6.53;5.25;;;;;;;8.69;89.70;101380.23;1631814;86;26364;-78
2022/02/09 11:03:59;;;;;;;6.55;5.20;;;;;;;8.73;89.67;101385.83;1631939;86;20980;-78
2022/02/09 11:06:46;;;;;;;6.95;5.00;;;;;;;8.77;89.68;101390.58;1651807;84;20975;-79
2022/02/09 11:09:31;;;;;;;8.50;5.25;;;;;;;8.80;89.68;101387.58;1648921;85;20949;-80
2022/02/09 11:12:16;;;;;;;5.62;4.58;;;;;;;8.83;89.73;101388.88;1644031;85;21457;-78
2022/02/09 11:15:00;;;;;;;7.25;5.20;;;;;;;8.88;89.69;101385.86;1634691;86;20983;-77
2022/02/09 11:17:48;;;;;;;6.50;5.53;;;;;;;8.93;89.69;101388.45;1630310;86;20969;-77
2022/02/09 11:20:54;;;;;;;8.40;4.97;;;;;;;8.93;89.61;101395.77;1625410;86;20972;-78
2022/02/09 11:23:51;;;;;;;;;;;;;;;8.92;89.54;101384.15;1633250;86;20969;-78
2022/02/09 11:26:49;;;;;;;5.08;4.67;;;;;;;8.91;89.53;101395.33;1625747;86;20147;-78
2022/02/09 11:33:00;;;;;;;4.85;4.45;;;;;;;8.94;89.59;101385.02;1631617;86;21006;-77
2022/02/09 11:35:27;;;;;;;5.75;4.72;;;;;;;8.93;89.57;101385.45;1607937;86;21039;-78
2022/02/09 11:41:09;;;;;;;6.90;5.30;;;;;;;8.95;89.56;101390.18;1622302;88;20940;-79
2022/02/09 11:44:01;;;;;;;5.50;5.00;;;;;;;8.97;89.56;101387.61;1614076;88;20975;-77
2022/02/09 11:47:00;;;;;;;5.92;5.22;;;;;;;8.98;89.60;101385.89;1620706;88;20976;-78
2022/02/09 11:50:04;;;;;;;5.83;5.33;;;;;;;8.98;89.51;101389.76;1606893;88;21401;-78
2022/02/09 12:11:27;;;;;;;5.90;4.55;;;;;;;8.90;89.47;101373.83;1628816;86;21015;-79
2022/02/09 12:14:05;;;;;;;5.08;4.58;;;;;;;8.89;89.47;101380.27;1627885;86;21043;-79
2022/02/09 12:16:49;;;;;;;5.05;4.50;;;;;;;8.88;89.48;101381.12;1626967;86;20956;-79
2022/02/09 12:19:35;;;;;;;7.90;5.00;;;;;;;8.86;89.50;101369.52;1660799;84;20925;-80
2022/02/09 12:22:19;;;;;;;4.65;4.20;;;;;;;8.86;89.50;101369.95;1632264;85;21391;-80
2022/02/09 12:25:04;;;;;;;7.60;5.62;;;;;;;8.83;89.48;101351.92;1659504;84;20973;-80
2022/02/09 12:27:50;;;;;;;6.87;4.97;;;;;;;8.79;89.42;101352.34;1656094;84;20928;-79
2022/02/09 12:30:34;;;;;;;4.85;4.45;;;;;;;8.76;89.46;101349.74;1629455;87;20992;-79
2022/02/09 12:33:21;;;;;;;5.78;5.15;;;;;;;8.77;89.51;101353.19;1623391;87;20963;-79
2022/02/09 12:36:21;;;;;;;5.60;5.10;;;;;;;8.78;89.50;101352.33;1659325;84;20968;-78
2022/02/09 12:39:07;;;;;;;6.72;5.60;;;;;;;8.78;89.48;101358.77;1653167;84;20992;-78
2022/02/09 12:41:54;;;;;;;7.40;5.70;;;;;;;8.74;89.42;101355.33;1658889;84;21433;-78
2022/02/09 12:44:37;;;;;;;8.70;6.08;;;;;;;8.73;89.42;101359.19;1652583;84;20975;-78
2022/02/09 12:47:29;;;;;;;7.55;5.60;;;;;;;8.73;89.45;101355.32;1628158;85;38557;-78
2022/02/09 12:50:19;;;;;;;5.37;4.87;;;;;;;8.76;89.52;101358.77;1656360;84;21339;-78
2022/02/09 12:53:05;;;;;;;5.55;5.05;;;;;;;8.77;89.39;101354.47;1659943;84;20936;-79
2022/02/09 12:55:55;;;;;;;8.00;4.65;;;;;;;8.77;89.37;101344.16;1641237;84;21354;-78
2022/02/09 12:58:36;;;;;;;8.25;5.05;;;;;;;8.75;89.38;101346.73;1616520;87;21549;-78
2022/02/09 13:01:20;;;;;;;7.03;5.40;;;;;;;8.74;89.30;101345.02;1657429;84;20916;-78
2022/02/09 13:04:04;;;;;;;5.72;5.22;;;;;;;8.73;89.33;101334.69;1617439;85;20929;-78
2022/02/09 13:06:49;;;;;;;9.28;5.90;;;;;;;8.69;89.30;101331.24;1652033;84;20991;-79
2022/02/09 13:09:34;;;;;;;6.10;5.30;;;;;;;8.68;89.33;101338.97;1668133;84;20971;-78
2022/02/09 13:12:26;;;;;;;5.85;5.17;;;;;;;8.67;89.31;101335.53;1670981;84;20905;-78
2022/02/09 13:15:22;;;;;;;5.35;4.12;;;;;;;8.67;89.32;101343.70;1668467;84;20987;-78
2022/02/09 13:25:19;;;;;;;4.37;3.17;;;;;;;8.62;89.23;101347.12;1657836;84;20959;-78
2022/02/09 14:18:42;;;;;;;5.62;4.40;;;;;;;8.37;89.11;101314.79;1625357;86;20983;-79
2022/02/09 14:54:05;;;;;;;11.48;7.62;;;;;;;8.34;88.96;101301.89;1600227;86;21083;-78
2022/02/09 14:56:55;;;;;;;9.50;8.18;;;;;;;8.31;88.95;101302.74;1611436;85;21096;-78
2022/02/09 15:11:28;;;;;;;7.58;4.97;;;;;;;8.28;88.84;101302.72;1651353;84;21114;-76
2022/02/09 15:14:59;;;;;;;4.60;4.20;;;;;;;8.26;88.82;101300.14;1650627;84;21732;-76
2022/02/09 15:17:06;;;;;;;5.17;4.67;;;;;;;8.25;88.80;101299.70;1646816;84;21118;-76
2022/02/09 15:20:04;;;;;;;;;;;;;;;8.24;88.77;101300.99;1652962;84;21740;-75
2022/02/09 15:22:31;;;;;;;3.85;3.42;;;;;;;8.23;88.63;101301.42;1660047;84;20217;-75
2022/02/09 15:25:20;;;;;;;4.60;3.65;;;;;;;8.20;88.64;101302.69;1658763;84;21090;-76
2022/02/09 15:28:04;;;;;;;4.72;3.35;;;;;;;8.20;88.66;101300.54;1665244;84;21064;-77
2022/02/09 15:31:03;;;;;;;4.45;3.33;;;;;;;8.20;88.60;101309.56;1670790;84;21395;-80
2022/02/09 15:33:44;;;;;;;3.52;2.90;;;;;;;8.19;88.54;101302.68;1657271;84;20984;-75
2022/02/09 15:36:36;;;;;;;;;;;;;;;8.17;88.52;101304.39;1659012;84;20996;-77
2022/02/09 15:39:09;;;;;;;4.55;2.75;;;;;;;8.17;88.43;101311.69;1652151;84;20122;-77
2022/02/09 15:42:07;;;;;;;4.28;3.00;;;;;;;8.15;88.49;101306.09;1657721;84;20935;-77
2022/02/09 16:06:17;;;;;;;4.35;2.75;;;;;;;8.04;88.27;101311.61;1645553;84;20981;-74
2022/02/09 16:24:04;;;;;;;5.75;4.10;;;;;;;7.94;88.20;101314.56;1622638;86;20944;-75
2022/02/09 16:44:18;;;;;;;6.05;4.03;;;;;;;7.88;88.19;101323.11;1624032;86;20943;-75
2022/02/09 16:44:55;;;;;;;6.47;4.28;;;;;;;7.87;88.11;101329.11;1631060;86;20984;-82
2022/02/09 16:48:15;;;;;;;6.85;4.08;;;;;;;7.87;88.11;101331.69;1616587;86;20967;-82
2022/02/09 16:50:38;;;;;;;5.75;4.10;;;;;;;7.87;88.09;101328.25;1618321;88;21039;-82
2022/02/09 17:20:03;;;;;;;4.83;3.37;;;;;;;7.82;88.04;101324.78;1626798;87;21600;-82
2022/02/09 17:22:47;;;;;;;5.47;3.55;;;;;;;7.81;88.01;101317.48;1626118;87;21154;-83
2022/02/09 17:25:32;;;;;;;4.30;3.62;;;;;;;7.82;88.00;101321.78;1625612;87;21098;-82
2022/02/09 17:28:17;;;;;;;5.55;3.02;;;;;;;7.81;87.96;101325.20;1626332;86;21569;-83
2022/02/09 17:31:23;;;;;;;3.90;3.10;;;;;;;7.82;88.00;101335.08;1623033;87;21143;-82
2022/02/09 17:57:54;;;;;;;5.03;3.17;;;;;;;7.84;87.92;101343.67;1631809;86;21174;-72
2022/02/09 18:00:36;;;;;;;;;;;;;;;7.85;87.93;101338.97;1627221;87;21107;-72
2022/02/09 18:03:22;;;;;;;8.85;3.72;;;;;;;7.83;87.84;101345.81;1624384;87;20208;-72
2022/02/09 18:06:14;;;;;;;5.42;3.58;;;;;;;7.83;87.88;101346.67;1622856;87;21074;-72
2022/02/09 18:09:10;;;;;;;;;;;;;;;7.83;87.93;101344.10;1663353;83;21630;-73
2022/02/09 18:30:18;;;;;;;5.25;4.20;;;;;;;7.74;87.96;101339.34;1638435;84;20987;-75
2022/02/09 18:44:55;;;;;;;4.95;3.47;;;;;;;7.69;87.99;101335.88;1577072;88;21679;-75
2022/02/09 18:47:47;;;;;;;4.72;3.58;;;;;;;7.66;87.97;101335.42;1632661;86;20993;-75
2022/02/09 19:05:26;;;;;;;9.53;5.47;;;;;;;7.59;88.03;101350.38;1660531;84;21102;-75
2022/02/09 19:14:23;;;;;;;8.25;5.90;;;;;;;7.54;88.01;101359.35;1625338;86;21083;-76
2022/02/09 19:17:04;;;;;;;6.28;5.67;;;;;;;7.54;88.02;101358.06;1627141;86;21511;-75
2022/02/09 19:26:20;;;;;;;8.28;6.00;;;;;;;7.53;88.00;101358.91;1613612;87;22393;-72
2022/02/09 19:32:17;;;;;;;8.48;5.75;;;;;;;7.53;88.03;101358.91;1613093;88;21066;-71
2022/02/09 19:41:02;;;;;;;8.33;6.10;;;;;;;7.52;88.01;101358.48;1615678;87;21009;-72
2022/02/09 19:52:19;;;;;;;6.62;5.45;;;;;;;7.49;88.02;101362.73;1624342;86;21115;-75
2022/02/09 19:55:18;;;;;;;9.18;5.62;;;;;;;7.46;87.99;101358.84;1645804;85;21045;-76
2022/02/09 19:57:47;;;;;;;7.20;5.80;;;;;;;7.44;88.04;101360.55;1640124;85;21534;-80
2022/02/09 20:00:35;;;;;;;6.05;5.45;;;;;;;7.42;87.99;101359.67;1638170;86;21128;-75
2022/02/09 20:03:19;;;;;;;6.42;5.53;;;;;;;7.40;88.02;101356.22;1615503;87;21365;-75
2022/02/09 20:06:07;;;;;;;9.00;5.53;;;;;;;7.39;88.04;101355.78;1616541;87;21054;-80
2022/02/09 20:08:50;;;;;;;9.60;6.05;;;;;;;7.38;88.07;101361.78;1632459;85;21075;-81
2022/02/09 20:11:38;;;;;;;10.70;6.35;;;;;;;7.37;88.06;101358.77;1629509;85;21123;-76
2022/02/09 20:14:22;;;;;;;6.47;5.87;;;;;;;7.37;88.07;101364.77;1634565;85;21086;-76
2022/02/09 20:17:07;;;;;;;5.90;5.17;;;;;;;7.35;88.05;101365.19;1626690;86;21657;-76
2022/02/09 20:19:57;;;;;;;6.37;5.07;;;;;;;7.33;88.11;101363.02;1629712;86;21561;-75
2022/02/09 20:22:43;;;;;;;8.73;5.75;;;;;;;7.32;88.10;101358.72;1656976;84;21114;-75
2022/02/09 20:25:29;;;;;;;6.20;5.50;;;;;;;7.30;88.12;101362.56;1626792;86;21097;-75
2022/02/09 20:28:14;;;;;;;7.87;5.90;;;;;;;7.30;88.17;101362.56;1628467;86;20969;-75
2022/02/09 20:31:05;;;;;;;7.87;5.58;;;;;;;7.29;88.16;101355.70;1657583;84;21044;-75
2022/02/09 20:33:52;;;;;;;5.92;5.30;;;;;;;7.29;88.21;101360.84;1660217;84;21097;-75
2022/02/09 20:36:34;;;;;;;;;;;;;;;7.29;88.19;101352.27;1636669;86;21088;-75
2022/02/09 20:39:24;;;;;;;5.45;4.83;;;;;;;7.28;88.26;101355.26;1634645;86;20207;-75
2022/02/09 20:42:10;;;;;;;8.58;5.67;;;;;;;7.27;88.22;101349.70;1661868;84;21140;-75
2022/02/09 20:45:01;;;;;;;6.50;5.05;;;;;;;7.28;88.25;101353.11;1657451;84;21111;-75
2022/02/09 20:47:46;;;;;;;7.10;5.28;;;;;;;7.28;88.26;101348.83;1661711;84;21451;-75
2022/02/09 20:50:32;;;;;;;6.25;5.40;;;;;;;7.29;88.22;101350.98;1635535;86;21034;-75
2022/02/09 20:53:16;;;;;;;6.30;4.97;;;;;;;7.30;88.24;101348.84;1656339;84;21507;-75
2022/02/09 20:56:01;;;;;;;5.60;5.03;;;;;;;7.29;88.19;101344.12;1617836;85;22111;-75
2022/02/09 20:58:48;;;;;;;6.15;5.55;;;;;;;7.29;88.26;101341.55;1633739;85;20940;-75
2022/02/09 21:04:37;;;;;;;5.83;5.22;;;;;;;7.33;88.31;101339.00;1634187;85;20136;-74
2022/02/09 21:07:35;;;;;;;;;;;;;;;7.34;88.27;101343.30;1659255;84;21472;-74
2022/02/09 21:10:31;;;;;;;6.08;5.25;;;;;;;7.35;88.31;101350.17;1658892;84;20130;-74
2022/02/09 21:13:04;;;;;;;5.67;5.17;;;;;;;7.35;88.29;101339.88;1634232;86;21455;-75
2022/02/09 21:16:08;;;;;;;;;;;;;;;7.35;88.28;101345.89;1630865;86;21019;-75
2022/02/09 21:31:43;;;;;;;6.50;5.22;;;;;;;7.44;88.33;101347.68;1652635;84;21577;-75
2022/02/09 21:50:00;;;;;;;5.60;5.10;;;;;;;7.49;88.34;101355.87;1618748;87;21073;-74
2022/02/09 21:57:50;;;;;;;6.45;5.85;;;;;;;7.52;88.33;101353.75;1619176;87;21454;-75
2022/02/09 22:06:38;;;;;;;6.17;5.58;;;;;;;7.52;88.31;101355.05;1578563;89;21112;-74
2022/02/09 22:22:00;;;;;;;6.12;5.53;;;;;;;7.54;88.34;101359.35;1628368;85;21131;-75
2022/02/09 22:27:27;;;;;;;5.87;5.25;;;;;;;7.53;88.31;101343.90;1651470;86;21108;-74
2022/02/09 22:48:37;;;;;;;5.40;4.90;;;;;;;7.54;88.34;101340.48;1606065;88;21009;-74
2022/02/09 22:57:14;;;;;;;7.08;5.37;;;;;;;7.54;88.37;101343.91;1627107;86;21424;-74
2022/02/09 23:00:07;;;;;;;5.90;5.22;;;;;;;7.54;88.36;101339.19;1617267;86;20984;-74
2022/02/09 23:02:51;;;;;;;5.62;5.12;;;;;;;7.53;88.31;101345.19;1612484;86;21091;-74
2022/02/09 23:05:50;;;;;;;;;;;;;;;7.54;88.37;101343.05;1649153;85;21067;-74
2022/02/09 23:08:55;;;;;;;5.62;5.12;;;;;;;7.53;88.36;101346.05;1628151;85;20301;-76
2022/02/09 23:11:51;;;;;;;5.47;4.97;;;;;;;7.52;88.36;101340.89;1634622;85;21075;-75
2022/02/09 23:14:39;;;;;;;6.12;5.55;;;;;;;7.51;88.34;101337.45;1632946;85;21055;-75
2022/02/09 23:23:43;;;;;;;6.37;5.78;;;;;;;7.49;88.36;101341.73;1628651;85;21613;-75
2022/02/09 23:26:42;;;;;;;5.50;5.00;;;;;;;7.48;88.38;101340.00;1624465;85;21134;-75
2022/02/09 23:57:01;;;;;;;7.08;6.40;;;;;;;7.47;88.37;101333.55;1597775;88;21066;-75
